Pensacola Regional Airport Pensacola US
ICAO: KPNS
IATA: PNS
Category: Medium
Scheduled Services: Yes

Elevation: 121 ft
TransAlt. 18000 ft.

Airport Communications:
APP/DEP:118.6
ATIS:121.25
CLNC DEL:123.725
CTAF:119.9
GND:121.9
GAINESVILLE RDO:122.2
TWR:119.9
UNICOM:122.95

KPNS Zoom In..

If you have problems with the map follow the link
https://www.worldairports.se/pages/airport.php?
ICAO=KPNS

Runways:

(A) RW 08 length 7000 ft width 150 ft
LOC 110.95 / hdg 80

(B) RW 17 length 7004 ft width 150 ft
ILS 111.10 / hdg 169

(C) RW 26 length 7000 ft width 150 ft
LOC 110.95 / hdg 260

(D) RW 35 length 7004 ft width 150 ft
LOC 110.95 / hdg 349

Location; KPNS
Day. 26 / Time. 22.53 Zulu
* Altimeter: 30.01
* Temperature: 09° c. 48.2°f.
* Wind from: 110° Speed 08 kn.
Dewpoint: 08° c.
Visibility: 10 Statute Miles.
Clouds: Broken 2700 ft.
Clouds: Broken 3500 ft.
Clouds: Overcast 4700 ft.

KPNS 262253Z 11008KT 10SM BKN027 BKN035 OVC047 09/08 A3001 RMK AO2 RAE01 PRESFR SLP167 P0000 T00940083 $


Wind From 110°
Speed 08 kn.

 
 
jpsmedia worldairports.se 2020   terms of use